Time;durP1;ratioP1;P1;durP2;ratioP2;P2;SDS_P1;SDS_P2;PMS_P1;PMS_P2;Temp;Humidity;BMP_temperature;BMP_pressure;BME280_temperature;BME280_humidity;BME280_pressure;Samples;Min_cycle;Max_cycle;Signal;HPM_P1;HPM_P2
2022/04/08 00:00:21;;;;;;;;;;;10.30;99.90;;;;;;5079562;28;19928;-58
2022/04/08 00:02:49;;;;;;;;;;;10.20;99.90;;;;;;5080273;28;19932;-58
2022/04/08 00:05:15;;;;;;;;;;;10.10;99.90;;;;;;5083619;28;20334;-58
2022/04/08 00:07:43;;;;;;;;;;;10.20;99.90;;;;;;5083978;28;20455;-58
2022/04/08 00:10:11;;;;;;;;;;;10.10;99.90;;;;;;5081462;28;20344;-58
2022/04/08 00:12:37;;;;;;;;;;;10.00;99.90;;;;;;5077597;28;19972;-58
2022/04/08 00:15:04;;;;;;;;;;;10.10;99.90;;;;;;5081570;28;19933;-58
2022/04/08 00:17:31;;;;;;;;;;;10.10;99.90;;;;;;5088464;28;20079;-58
2022/04/08 00:19:58;;;;;;;;;;;10.00;99.90;;;;;;5091806;28;19928;-58
2022/04/08 00:22:25;;;;;;;;;;;10.00;99.90;;;;;;5092350;28;19928;-58
2022/04/08 00:24:53;;;;;;;;;;;10.00;99.90;;;;;;5078542;28;19924;-58
2022/04/08 00:27:19;;;;;;;;;;;9.90;99.90;;;;;;5107353;22;19924;-47
2022/04/08 00:29:46;;;;;;;;;;;9.90;99.90;;;;;;5076488;28;19928;-48
2022/04/08 00:32:13;;;;;;;;;;;9.90;99.90;;;;;;5108275;28;20343;-48
2022/04/08 00:34:40;;;;;;;;;;;9.80;99.90;;;;;;5107164;28;19923;-48
2022/04/08 00:37:06;;;;;;;;;;;9.80;99.90;;;;;;5098292;28;19924;-47
2022/04/08 00:39:33;;;;;;;;;;;9.80;99.90;;;;;;5086208;28;19959;-47
2022/04/08 00:42:01;;;;;;;;;;;9.90;99.90;;;;;;5072850;28;20393;-48
2022/04/08 00:44:29;;;;;;;;;;;10.10;99.90;;;;;;5084023;28;19955;-48
2022/04/08 00:46:55;;;;;;;;;;;10.20;99.90;;;;;;5091198;28;20389;-47
2022/04/08 00:49:22;;;;;;;;;;;10.20;99.90;;;;;;5095946;28;19923;-48
2022/04/08 00:51:49;;;;;;;;;;;10.50;99.90;;;;;;5083826;28;19989;-48
2022/04/08 00:54:16;;;;;;;;;;;10.60;99.90;;;;;;5086824;28;19924;-48
2022/04/08 00:56:43;;;;;;;;;;;10.60;99.90;;;;;;5092912;28;19926;-47
2022/04/08 00:59:11;;;;;;;;;;;10.60;99.90;;;;;;5086677;28;19924;-47
2022/04/08 01:01:38;;;;;;;;;;;10.80;99.90;;;;;;5092533;28;19928;-47
2022/04/08 01:04:04;;;;;;;;;;;10.90;99.90;;;;;;5092006;28;19985;-47
2022/04/08 01:06:31;;;;;;;;;;;10.90;99.90;;;;;;5086339;28;19924;-46
2022/04/08 01:08:58;;;;;;;;;;;11.10;99.90;;;;;;5091231;28;19924;-47
2022/04/08 01:11:25;;;;;;;;;;;11.10;99.90;;;;;;5080327;28;20382;-48
2022/04/08 01:13:52;;;;;;;;;;;11.10;99.90;;;;;;5072536;28;19986;-47
2022/04/08 01:16:23;;;;;;;;;;;11.10;99.90;;;;;;5072307;28;19978;-47
2022/04/08 01:18:50;;;;;;;;;;;11.30;99.90;;;;;;5087033;28;19977;-48
2022/04/08 01:21:17;;;;;;;;;;;11.50;99.90;;;;;;5081536;28;19928;-47
2022/04/08 01:23:47;;;;;;;;;;;11.60;99.90;;;;;;5076942;28;19925;-48
2022/04/08 01:26:15;;;;;;;;;;;11.60;99.90;;;;;;5093987;28;19924;-47
2022/04/08 01:28:43;;;;;;;;;;;11.50;99.90;;;;;;5084287;28;19931;-47
2022/04/08 01:31:10;;;;;;;;;;;11.40;99.90;;;;;;5079782;28;19927;-47
2022/04/08 01:33:37;;;;;;;;;;;11.30;99.90;;;;;;5093503;28;20350;-47
2022/04/08 01:36:03;;;;;;;;;;;11.40;99.90;;;;;;5096103;28;19924;-47
2022/04/08 01:38:30;;;;;;;;;;;11.40;99.90;;;;;;5085738;28;19938;-47
2022/04/08 01:40:57;;;;;;;;;;;11.30;99.90;;;;;;5072010;28;19925;-47
2022/04/08 01:43:25;;;;;;;;;;;11.40;99.90;;;;;;5077069;28;19932;-48
2022/04/08 01:45:52;;;;;;;;;;;11.40;99.90;;;;;;5093718;28;19932;-47
2022/04/08 01:48:18;;;;;;;;;;;11.50;99.90;;;;;;5088934;28;20347;-47
2022/04/08 01:50:45;;;;;;;;;;;11.60;99.90;;;;;;5095220;28;19954;-47
2022/04/08 01:53:13;;;;;;;;;;;11.70;99.90;;;;;;5086220;28;19928;-47
2022/04/08 01:55:40;;;;;;;;;;;11.80;99.90;;;;;;5083268;28;20359;-48
2022/04/08 01:58:07;;;;;;;;;;;11.80;99.90;;;;;;5112320;28;20347;-47
2022/04/08 02:00:35;;;;;;;;;;;11.90;99.90;;;;;;5110851;28;19927;-48
2022/04/08 02:03:02;;;;;;;;;;;11.80;99.90;;;;;;5096269;28;19969;-48
2022/04/08 02:05:28;;;;;;;;;;;11.60;99.90;;;;;;5099397;28;19924;-47
2022/04/08 02:07:55;;;;;;;;;;;11.40;99.90;;;;;;5081815;28;20452;-47
2022/04/08 02:10:23;;;;;;;;;;;11.10;99.90;;;;;;5071801;28;19928;-47
2022/04/08 02:12:50;;;;;;;;;;;10.80;99.90;;;;;;5090083;28;19935;-48
2022/04/08 02:15:17;;;;;;;;;;;10.90;99.90;;;;;;5090545;28;19932;-48
2022/04/08 02:17:46;;;;;;;;;;;10.80;99.90;;;;;;5080404;28;20365;-47
2022/04/08 02:20:12;;;;;;;;;;;10.80;99.90;;;;;;5072796;28;20344;-48
2022/04/08 02:22:39;;;;;;;;;;;10.80;99.90;;;;;;5071565;28;19978;-48
2022/04/08 02:25:07;;;;;;;;;;;10.80;99.90;;;;;;5085255;28;19924;-48
2022/04/08 02:27:33;;;;;;;;;;;10.80;99.90;;;;;;5091726;28;19928;-47
2022/04/08 02:30:00;;;;;;;;;;;10.70;99.90;;;;;;5090031;28;19977;-47
2022/04/08 02:32:27;;;;;;;;;;;10.70;99.90;;;;;;5083126;28;19928;-47
2022/04/08 02:34:55;;;;;;;;;;;10.80;99.90;;;;;;5085511;28;19925;-48
2022/04/08 02:37:22;;;;;;;;;;;10.90;99.90;;;;;;5081520;28;19981;-47
2022/04/08 02:39:48;;;;;;;;;;;10.80;99.90;;;;;;5094398;28;19928;-47
2022/04/08 02:42:15;;;;;;;;;;;10.60;99.90;;;;;;5094824;28;20359;-47
2022/04/08 02:44:42;;;;;;;;;;;10.40;99.90;;;;;;5075230;28;19936;-48
2022/04/08 02:47:09;;;;;;;;;;;10.20;99.90;;;;;;5071512;28;19924;-47
2022/04/08 02:49:35;;;;;;;;;;;10.10;99.90;;;;;;5079840;28;19932;-47
2022/04/08 02:52:04;;;;;;;;;;;10.00;99.90;;;;;;5091859;28;19973;-47
2022/04/08 02:54:30;;;;;;;;;;;9.80;99.90;;;;;;5095140;28;19928;-47
2022/04/08 02:56:57;;;;;;;;;;;9.90;99.90;;;;;;5080881;28;19978;-46
2022/04/08 02:59:24;;;;;;;;;;;9.80;99.90;;;;;;5079862;28;19924;-47
2022/04/08 03:01:50;;;;;;;;;;;9.80;99.90;;;;;;5092348;28;19924;-48
2022/04/08 03:04:17;;;;;;;;;;;9.80;99.90;;;;;;5086051;28;19993;-47
2022/04/08 03:06:44;;;;;;;;;;;9.70;99.90;;;;;;5090803;28;19924;-47
2022/04/08 03:09:12;;;;;;;;;;;9.70;99.90;;;;;;5105769;28;20351;-47
2022/04/08 03:11:39;;;;;;;;;;;9.80;99.90;;;;;;5087131;28;19924;-47
2022/04/08 03:14:06;;;;;;;;;;;9.90;99.90;;;;;;5074745;28;20390;-47
2022/04/08 03:16:32;;;;;;;;;;;9.80;99.90;;;;;;5082264;28;19929;-48
2022/04/08 03:18:59;;;;;;;;;;;9.70;99.90;;;;;;5093426;28;19978;-47
2022/04/08 03:21:27;;;;;;;;;;;9.60;99.90;;;;;;5093785;28;20012;-47
2022/04/08 03:23:54;;;;;;;;;;;9.60;99.90;;;;;;5099273;28;19930;-48
2022/04/08 03:26:22;;;;;;;;;;;9.50;99.90;;;;;;5097776;28;19977;-48
2022/04/08 03:28:49;;;;;;;;;;;9.60;99.90;;;;;;5101506;28;19924;-47
2022/04/08 03:31:15;;;;;;;;;;;9.60;99.90;;;;;;5094427;28;20290;-47
2022/04/08 03:33:42;;;;;;;;;;;9.60;99.90;;;;;;5097684;28;19977;-46
2022/04/08 03:36:09;;;;;;;;;;;9.80;99.90;;;;;;5087410;28;19929;-47
2022/04/08 03:38:36;;;;;;;;;;;9.80;99.90;;;;;;5098073;28;19927;-47
2022/04/08 03:41:03;;;;;;;;;;;9.90;99.90;;;;;;5102878;28;20392;-47
2022/04/08 03:43:31;;;;;;;;;;;9.70;99.90;;;;;;5114996;28;19977;-48
2022/04/08 03:45:57;;;;;;;;;;;9.70;99.90;;;;;;5090651;28;19924;-47
2022/04/08 03:48:24;;;;;;;;;;;9.50;99.90;;;;;;5096904;28;19924;-48
2022/04/08 03:50:51;;;;;;;;;;;9.40;99.90;;;;;;5092206;28;19931;-47
2022/04/08 03:53:18;;;;;;;;;;;9.40;99.90;;;;;;5088607;28;20405;-47
2022/04/08 03:55:45;;;;;;;;;;;9.40;99.90;;;;;;5099640;28;19973;-46
2022/04/08 03:58:11;;;;;;;;;;;9.30;99.90;;;;;;5090854;28;20344;-47
2022/04/08 04:00:40;;;;;;;;;;;9.30;99.90;;;;;;5096122;28;20381;-47
2022/04/08 04:03:07;;;;;;;;;;;9.20;99.90;;;;;;5095248;28;19932;-47
2022/04/08 04:05:34;;;;;;;;;;;9.00;99.90;;;;;;5093921;28;19928;-48
2022/04/08 04:08:01;;;;;;;;;;;8.90;99.90;;;;;;5089604;28;19931;-50
2022/04/08 04:10:28;;;;;;;;;;;9.00;99.90;;;;;;5092181;28;19924;-48
2022/04/08 04:12:54;;;;;;;;;;;9.00;99.90;;;;;;5090387;28;19931;-48
2022/04/08 04:15:21;;;;;;;;;;;9.30;99.90;;;;;;5094179;28;19924;-49
2022/04/08 04:17:50;;;;;;;;;;;9.20;99.90;;;;;;5092694;28;19973;-48
2022/04/08 04:20:16;;;;;;;;;;;9.10;99.90;;;;;;5092993;28;20028;-48
2022/04/08 04:22:43;;;;;;;;;;;9.20;99.90;;;;;;5092628;28;20298;-49
2022/04/08 04:25:10;;;;;;;;;;;9.30;99.90;;;;;;5090287;28;19973;-49
2022/04/08 04:27:37;;;;;;;;;;;9.20;99.90;;;;;;5092094;28;20385;-48
2022/04/08 04:30:04;;;;;;;;;;;9.00;99.90;;;;;;5091193;28;19932;-46
2022/04/08 04:32:30;;;;;;;;;;;8.90;99.90;;;;;;5092069;28;19924;-48
2022/04/08 04:35:06;;;;;;;;;;;8.70;99.90;;;;;;5091831;28;20044;-49
2022/04/08 04:37:33;;;;;;;;;;;8.70;99.90;;;;;;5092249;28;19928;-49
2022/04/08 04:40:00;;;;;;;;;;;8.60;99.90;;;;;;5092028;28;20450;-51
2022/04/08 04:42:27;;;;;;;;;;;8.50;99.90;;;;;;5088693;28;19969;-47
2022/04/08 04:44:54;;;;;;;;;;;8.70;99.90;;;;;;5091940;28;19958;-48
2022/04/08 04:47:21;;;;;;;;;;;8.90;99.90;;;;;;5091708;28;19924;-48
2022/04/08 04:49:48;;;;;;;;;;;9.10;99.90;;;;;;5092086;28;19924;-46
2022/04/08 04:52:16;;;;;;;;;;;9.00;99.90;;;;;;5087867;28;19924;-48
2022/04/08 04:54:43;;;;;;;;;;;9.00;99.90;;;;;;5091308;28;19949;-48
2022/04/08 04:57:10;;;;;;;;;;;8.80;99.90;;;;;;5089272;28;19973;-49
2022/04/08 04:59:37;;;;;;;;;;;8.90;99.90;;;;;;5091892;28;19925;-47
2022/04/08 05:02:04;;;;;;;;;;;8.80;99.90;;;;;;5087645;28;19932;-48
2022/04/08 05:04:31;;;;;;;;;;;8.90;99.90;;;;;;5090728;28;19924;-50
2022/04/08 05:06:57;;;;;;;;;;;8.90;99.90;;;;;;5092587;28;19924;-48
2022/04/08 05:09:25;;;;;;;;;;;8.80;99.90;;;;;;5093846;28;19935;-50
2022/04/08 05:11:52;;;;;;;;;;;8.80;99.90;;;;;;5090000;28;19940;-48
2022/04/08 05:14:22;;;;;;;;;;;8.70;99.90;;;;;;5088765;28;19928;-47
2022/04/08 05:16:49;;;;;;;;;;;8.50;99.90;;;;;;5089616;28;21318;-47
2022/04/08 05:19:16;;;;;;;;;;;8.50;99.90;;;;;;5089065;28;20007;-48
2022/04/08 05:21:43;;;;;;;;;;;8.30;99.90;;;;;;5088799;28;19931;-48
2022/04/08 05:24:10;;;;;;;;;;;8.30;99.90;;;;;;5088790;28;19931;-48
2022/04/08 05:26:38;;;;;;;;;;;8.30;99.90;;;;;;5090481;28;19966;-48
2022/04/08 05:29:04;;;;;;;;;;;8.50;99.90;;;;;;5088949;28;19985;-46
2022/04/08 05:31:31;;;;;;;;;;;8.60;99.90;;;;;;5091272;28;20344;-48
2022/04/08 05:33:58;;;;;;;;;;;8.70;99.90;;;;;;5092065;28;19993;-48
2022/04/08 05:36:25;;;;;;;;;;;8.80;99.90;;;;;;5087153;28;20009;-51
2022/04/08 05:38:51;;;;;;;;;;;8.90;99.90;;;;;;5091051;28;19928;-48
2022/04/08 05:41:18;;;;;;;;;;;8.80;99.90;;;;;;5090785;28;19924;-49
2022/04/08 05:43:46;;;;;;;;;;;9.10;99.90;;;;;;5087629;28;19924;-50
2022/04/08 05:46:13;;;;;;;;;;;9.30;99.90;;;;;;5091218;28;20314;-49
2022/04/08 05:48:40;;;;;;;;;;;9.30;99.90;;;;;;5091520;28;19924;-49
2022/04/08 05:51:07;;;;;;;;;;;9.30;99.90;;;;;;5091542;28;19997;-50
2022/04/08 05:53:34;;;;;;;;;;;9.20;99.90;;;;;;5089763;28;20389;-48
2022/04/08 05:56:02;;;;;;;;;;;9.20;99.90;;;;;;5089582;28;19924;-49
2022/04/08 05:58:29;;;;;;;;;;;9.20;99.90;;;;;;5089561;28;20340;-49
2022/04/08 06:00:57;;;;;;;;;;;9.30;99.90;;;;;;5092658;28;19986;-49
2022/04/08 06:03:24;;;;;;;;;;;9.40;99.90;;;;;;5091673;28;19927;-49
2022/04/08 06:05:50;;;;;;;;;;;9.40;99.90;;;;;;5090586;28;19985;-49
2022/04/08 06:08:17;;;;;;;;;;;9.30;99.90;;;;;;5091134;28;20455;-50
2022/04/08 06:10:44;;;;;;;;;;;9.20;99.90;;;;;;5091651;28;19931;-49
2022/04/08 06:13:11;;;;;;;;;;;9.20;99.90;;;;;;5090783;28;19931;-49
2022/04/08 06:15:38;;;;;;;;;;;9.20;99.90;;;;;;5088218;28;19925;-50
2022/04/08 06:18:07;;;;;;;;;;;9.30;99.90;;;;;;5088145;28;19939;-50
2022/04/08 06:20:34;;;;;;;;;;;9.30;99.90;;;;;;5090836;28;20445;-49
2022/04/08 06:23:01;;;;;;;;;;;9.30;99.90;;;;;;5089959;28;19928;-48
2022/04/08 06:25:28;;;;;;;;;;;9.30;99.90;;;;;;5091361;28;19928;-50
2022/04/08 06:27:56;;;;;;;;;;;9.50;99.90;;;;;;5109841;22;20021;-56
2022/04/08 06:30:23;;;;;;;;;;;9.60;99.90;;;;;;5091066;28;20018;-56
2022/04/08 06:32:50;;;;;;;;;;;9.60;99.90;;;;;;5073397;28;19932;-57
2022/04/08 06:35:18;;;;;;;;;;;9.50;99.90;;;;;;5072894;28;19990;-57
2022/04/08 06:37:45;;;;;;;;;;;9.50;99.90;;;;;;5077650;28;20385;-58
2022/04/08 06:40:12;;;;;;;;;;;9.70;99.90;;;;;;5095143;28;19978;-57
2022/04/08 06:42:39;;;;;;;;;;;9.90;99.90;;;;;;5095893;28;19987;-57
2022/04/08 06:45:07;;;;;;;;;;;10.10;99.90;;;;;;5095302;28;20023;-58
2022/04/08 06:47:44;;;;;;;;;;;10.00;99.90;;;;;;5094999;28;19928;-57
2022/04/08 06:50:11;;;;;;;;;;;10.00;99.90;;;;;;5095510;28;19928;-58
2022/04/08 06:52:39;;;;;;;;;;;10.00;99.90;;;;;;5094732;28;19924;-57
2022/04/08 06:55:07;;;;;;;;;;;10.00;99.90;;;;;;5094504;28;20012;-57
2022/04/08 06:57:34;;;;;;;;;;;10.20;99.90;;;;;;5095246;28;20330;-58
2022/04/08 07:00:00;;;;;;;;;;;10.20;99.90;;;;;;5094800;28;19932;-58
2022/04/08 07:02:27;;;;;;;;;;;10.50;99.90;;;;;;5113152;28;19924;-57
2022/04/08 07:04:54;;;;;;;;;;;10.40;99.90;;;;;;5115302;28;19934;-57
2022/04/08 07:07:22;;;;;;;;;;;10.60;99.90;;;;;;5106054;28;19924;-57
2022/04/08 07:09:52;;;;;;;;;;;10.50;99.90;;;;;;5101817;28;19977;-57
2022/04/08 07:12:19;;;;;;;;;;;10.50;99.90;;;;;;5101833;28;19984;-57
2022/04/08 07:14:45;;;;;;;;;;;10.50;99.90;;;;;;5094185;28;19928;-56
2022/04/08 07:17:12;;;;;;;;;;;10.60;99.90;;;;;;5093719;28;19924;-57
2022/04/08 07:19:39;;;;;;;;;;;10.50;99.90;;;;;;5093624;28;19924;-58
2022/04/08 07:22:06;;;;;;;;;;;10.50;99.90;;;;;;5093380;28;20378;-57
2022/04/08 07:24:32;;;;;;;;;;;10.40;99.90;;;;;;5093493;28;20279;-57
2022/04/08 07:27:01;;;;;;;;;;;10.60;99.90;;;;;;5093236;28;20340;-58
2022/04/08 07:29:28;;;;;;;;;;;10.60;99.90;;;;;;5093595;28;19925;-58
2022/04/08 07:31:58;;;;;;;;;;;10.60;99.90;;;;;;5093240;28;20018;-57
2022/04/08 07:34:25;;;;;;;;;;;10.80;99.90;;;;;;5093406;28;19932;-57
2022/04/08 07:36:52;;;;;;;;;;;10.90;99.90;;;;;;5093020;28;19931;-57
2022/04/08 07:39:18;;;;;;;;;;;11.00;99.90;;;;;;5093351;28;19962;-57
2022/04/08 07:41:45;;;;;;;;;;;11.00;99.90;;;;;;5092919;28;19924;-57
2022/04/08 07:44:13;;;;;;;;;;;11.10;99.90;;;;;;5092929;28;19934;-57
2022/04/08 07:46:42;;;;;;;;;;;11.20;99.90;;;;;;5091487;28;19924;-57
2022/04/08 07:49:09;;;;;;;;;;;11.50;99.90;;;;;;5093005;28;19924;-57
2022/04/08 07:51:36;;;;;;;;;;;11.70;99.90;;;;;;5092712;28;20000;-57
2022/04/08 07:54:03;;;;;;;;;;;11.90;99.90;;;;;;5092704;28;19935;-57
2022/04/08 07:56:33;;;;;;;;;;;12.20;99.90;;;;;;5089944;28;19985;-57
2022/04/08 07:59:00;;;;;;;;;;;12.30;99.90;;;;;;5092596;28;19931;-58
2022/04/08 08:01:28;;;;;;;;;;;12.50;99.90;;;;;;5092487;28;19962;-58
2022/04/08 08:03:54;;;;;;;;;;;12.90;99.90;;;;;;5088719;28;20295;-58
2022/04/08 08:06:21;;;;;;;;;;;13.20;99.90;;;;;;5092603;28;20384;-58
2022/04/08 08:08:50;;;;;;;;;;;13.60;99.90;;;;;;5092250;28;20386;-58
2022/04/08 08:11:18;;;;;;;;;;;14.50;99.90;;;;;;5092458;28;20420;-58
2022/04/08 08:13:45;;;;;;;;;;;16.00;99.90;;;;;;5087863;28;19939;-58
2022/04/08 08:16:12;;;;;;;;;;;17.10;99.90;;;;;;5092774;28;20019;-58
2022/04/08 08:18:40;;;;;;;;;;;17.30;99.90;;;;;;5084169;28;20363;-59
2022/04/08 08:21:07;;;;;;;;;;;17.40;99.90;;;;;;5090069;28;20308;-58
2022/04/08 08:23:34;;;;;;;;;;;17.50;99.90;;;;;;5092445;28;19928;-58
2022/04/08 08:26:00;;;;;;;;;;;17.40;99.90;;;;;;5092008;28;20099;-59
2022/04/08 08:28:27;;;;;;;;;;;17.30;99.90;;;;;;5091857;28;19970;-58
2022/04/08 08:30:54;;;;;;;;;;;17.30;99.90;;;;;;5091928;28;19981;-58
2022/04/08 08:33:21;;;;;;;;;;;16.90;99.90;;;;;;5092066;28;19928;-58
2022/04/08 08:35:49;;;;;;;;;;;16.60;99.90;;;;;;5092039;28;19973;-58
2022/04/08 08:38:17;;;;;;;;;;;16.40;99.90;;;;;;5086781;28;19935;-61
2022/04/08 08:40:45;;;;;;;;;;;16.60;99.90;;;;;;5076565;28;20297;-58
2022/04/08 08:43:16;;;;;;;;;;;16.80;99.90;;;;;;5077900;28;19942;-59
2022/04/08 08:45:43;;;;;;;;;;;17.00;99.90;;;;;;5078784;28;20342;-58
2022/04/08 08:48:10;;;;;;;;;;;16.50;99.90;;;;;;5075037;28;19924;-58
2022/04/08 08:50:38;;;;;;;;;;;16.60;99.90;;;;;;5077085;28;19934;-59
2022/04/08 08:53:07;;;;;;;;;;;16.60;99.90;;;;;;5077886;28;19936;-59
2022/04/08 08:55:33;;;;;;;;;;;16.00;99.90;;;;;;5080063;28;19985;-59
2022/04/08 08:58:00;;;;;;;;;;;15.40;99.90;;;;;;5080081;28;19928;-58
2022/04/08 09:00:27;;;;;;;;;;;15.10;99.90;;;;;;5087741;28;19927;-58
2022/04/08 09:02:53;;;;;;;;;;;15.00;99.90;;;;;;5088695;28;20328;-59
2022/04/08 09:05:23;;;;;;;;;;;14.70;99.90;;;;;;5089286;28;19928;-58
2022/04/08 09:07:57;;;;;;;;;;;14.80;99.90;;;;;;5081532;28;19928;-57
2022/04/08 09:10:26;;;;;;;;;;;15.10;99.90;;;;;;5086581;28;19928;-58
2022/04/08 09:12:53;;;;;;;;;;;15.00;99.90;;;;;;5083217;28;19970;-58
2022/04/08 09:15:20;;;;;;;;;;;14.70;99.90;;;;;;5084766;28;19924;-58
2022/04/08 09:17:47;;;;;;;;;;;14.50;99.90;;;;;;5086982;28;20001;-57
2022/04/08 09:20:14;;;;;;;;;;;14.70;99.90;;;;;;5080655;28;20438;-58
2022/04/08 09:22:41;;;;;;;;;;;15.60;99.90;;;;;;5081090;28;19993;-59
2022/04/08 09:25:10;;;;;;;;;;;16.50;99.90;;;;;;5086112;28;19924;-58
2022/04/08 09:27:39;;;;;;;;;;;17.50;99.90;;;;;;5081219;28;19982;-58
2022/04/08 09:30:07;;;;;;;;;;;17.50;99.90;;;;;;5090022;28;19928;-59
2022/04/08 09:32:34;;;;;;;;;;;18.10;99.90;;;;;;5078740;28;19939;-58
2022/04/08 09:35:01;;;;;;;;;;;19.00;99.90;;;;;;5084798;28;19924;-59
2022/04/08 09:37:29;;;;;;;;;;;19.50;99.90;;;;;;5081303;28;19924;-58
2022/04/08 09:39:57;;;;;;;;;;;19.30;99.90;;;;;;5083314;28;20023;-58
2022/04/08 09:42:40;;;;;;;;;;;19.10;99.90;;;;;;5089913;28;19969;-59
2022/04/08 09:45:09;;;;;;;;;;;19.00;99.90;;;;;;5075212;28;19971;-59
2022/04/08 09:47:36;;;;;;;;;;;18.80;99.90;;;;;;5084065;28;19935;-58
2022/04/08 09:50:03;;;;;;;;;;;18.60;99.90;;;;;;5085781;28;19924;-58
2022/04/08 09:52:30;;;;;;;;;;;18.70;99.90;;;;;;5083633;28;19924;-58
2022/04/08 09:54:59;;;;;;;;;;;17.90;99.90;;;;;;5088477;28;19924;-58
2022/04/08 09:57:26;;;;;;;;;;;17.10;99.90;;;;;;5089640;28;20330;-58
2022/04/08 09:59:55;;;;;;;;;;;17.10;99.90;;;;;;5091436;28;19996;-58
2022/04/08 10:02:25;;;;;;;;;;;17.00;99.90;;;;;;5079242;28;20340;-57
2022/04/08 10:04:52;;;;;;;;;;;16.90;99.90;;;;;;5084456;28;19925;-58
2022/04/08 10:07:20;;;;;;;;;;;16.70;99.90;;;;;;5070761;28;19925;-58
2022/04/08 10:09:49;;;;;;;;;;;16.50;99.90;;;;;;5072022;28;19928;-58
2022/04/08 10:12:19;;;;;;;;;;;16.00;99.90;;;;;;5103801;28;19932;-58
2022/04/08 10:14:50;;;;;;;;;;;16.10;99.90;;;;;;5107003;28;19983;-58
2022/04/08 10:17:17;;;;;;;;;;;16.00;99.90;;;;;;5099005;28;19924;-59
2022/04/08 10:19:45;;;;;;;;;;;16.30;99.90;;;;;;5103221;28;19928;-58
2022/04/08 10:22:16;;;;;;;;;;;16.30;99.90;;;;;;5097368;28;20362;-57
2022/04/08 10:24:52;;;;;;;;;;;16.50;99.90;;;;;;5095641;28;19925;-58
2022/04/08 10:27:28;;;;;;;;;;;16.40;99.90;;;;;;5093059;28;19924;-58
2022/04/08 10:29:55;;;;;;;;;;;16.10;99.90;;;;;;5093712;28;19924;-59
2022/04/08 10:32:22;;;;;;;;;;;16.10;99.90;;;;;;5087813;28;19935;-58
2022/04/08 10:34:50;;;;;;;;;;;16.20;99.90;;;;;;5093775;28;20021;-58
2022/04/08 10:37:20;;;;;;;;;;;15.90;99.90;;;;;;5093144;28;20007;-58
2022/04/08 10:39:56;;;;;;;;;;;15.60;99.90;;;;;;5094414;28;20028;-58
2022/04/08 10:42:28;;;;;;;;;;;15.20;99.90;;;;;;5094580;28;19924;-58
2022/04/08 10:44:55;;;;;;;;;;;15.20;99.90;;;;;;5094274;28;19935;-59
2022/04/08 10:47:23;;;;;;;;;;;15.40;99.90;;;;;;5098296;28;19928;-59
2022/04/08 10:49:52;;;;;;;;;;;15.90;99.90;;;;;;5114735;28;19928;-59
2022/04/08 10:52:21;;;;;;;;;;;16.00;99.90;;;;;;5114821;28;19924;-58
2022/04/08 10:54:48;;;;;;;;;;;16.00;99.90;;;;;;5114966;28;20440;-57
2022/04/08 10:57:15;;;;;;;;;;;15.30;99.90;;;;;;5114872;28;19976;-57
2022/04/08 10:59:52;;;;;;;;;;;15.50;99.90;;;;;;5078524;28;19954;-57
2022/04/08 11:02:20;;;;;;;;;;;15.60;99.90;;;;;;5073871;28;19933;-57
2022/04/08 11:04:47;;;;;;;;;;;15.60;99.90;;;;;;5081613;28;19935;-58
2022/04/08 11:07:15;;;;;;;;;;;15.70;99.90;;;;;;5094161;28;19985;-58
2022/04/08 11:09:43;;;;;;;;;;;15.60;99.90;;;;;;5091994;28;19947;-58
2022/04/08 11:12:10;;;;;;;;;;;15.80;99.90;;;;;;5093089;28;19924;-60
2022/04/08 11:14:38;;;;;;;;;;;15.90;99.90;;;;;;5102534;28;20465;-58
2022/04/08 11:17:05;;;;;;;;;;;16.00;99.90;;;;;;5114048;28;19924;-58
2022/04/08 11:19:32;;;;;;;;;;;15.40;99.90;;;;;;5114076;28;19969;-58
2022/04/08 11:21:59;;;;;;;;;;;15.70;99.90;;;;;;5113816;28;19924;-58
2022/04/08 11:24:32;;;;;;;;;;;15.60;99.90;;;;;;5100495;28;20447;-58
2022/04/08 11:26:59;;;;;;;;;;;15.20;99.90;;;;;;5076330;28;19936;-58
2022/04/08 11:29:27;;;;;;;;;;;15.40;99.90;;;;;;5102996;28;19930;-58
2022/04/08 11:32:06;;;;;;;;;;;15.70;99.90;;;;;;5114030;28;20004;-57
2022/04/08 11:34:32;;;;;;;;;;;16.00;99.90;;;;;;5109447;28;19964;-58
2022/04/08 11:36:59;;;;;;;;;;;16.50;99.90;;;;;;5113841;28;19930;-57
2022/04/08 11:39:30;;;;;;;;;;;16.60;99.90;;;;;;5113601;28;19927;-57
2022/04/08 11:41:58;;;;;;;;;;;17.00;99.90;;;;;;5113667;28;19953;-58
2022/04/08 11:44:25;;;;;;;;;;;17.20;99.90;;;;;;5112960;28;19930;-57
2022/04/08 11:46:52;;;;;;;;;;;17.60;99.90;;;;;;5111409;28;19984;-57
2022/04/08 11:49:24;;;;;;;;;;;17.90;99.90;;;;;;5093270;28;19924;-58
2022/04/08 11:52:00;;;;;;;;;;;17.80;99.90;;;;;;5087463;28;19947;-58
2022/04/08 11:54:28;;;;;;;;;;;17.20;99.90;;;;;;5073059;28;20347;-58
2022/04/08 11:56:55;;;;;;;;;;;17.00;99.90;;;;;;5073148;28;19924;-58
2022/04/08 11:59:22;;;;;;;;;;;16.90;99.90;;;;;;5072813;28;19924;-59
2022/04/08 12:01:48;;;;;;;;;;;16.90;99.90;;;;;;5081492;28;19928;-59
2022/04/08 12:04:16;;;;;;;;;;;16.90;99.90;;;;;;5091595;28;20350;-59
2022/04/08 12:06:44;;;;;;;;;;;17.00;99.90;;;;;;5072613;28;19932;-59
2022/04/08 12:09:11;;;;;;;;;;;17.00;99.90;;;;;;5072620;28;19925;-58
2022/04/08 12:11:43;;;;;;;;;;;17.10;99.90;;;;;;5078989;28;20031;-58
2022/04/08 12:14:10;;;;;;;;;;;17.00;99.90;;;;;;5092919;28;20450;-59
2022/04/08 12:16:41;;;;;;;;;;;17.20;99.90;;;;;;5092882;28;20016;-59
2022/04/08 12:19:09;;;;;;;;;;;17.20;99.90;;;;;;5093095;28;19924;-59
2022/04/08 12:21:39;;;;;;;;;;;17.20;99.90;;;;;;5093566;28;20038;-59
2022/04/08 12:24:07;;;;;;;;;;;17.50;99.90;;;;;;5092603;28;20007;-59
2022/04/08 12:26:34;;;;;;;;;;;17.70;99.90;;;;;;5073483;28;20036;-59
2022/04/08 12:29:08;;;;;;;;;;;18.10;99.90;;;;;;5072225;28;19925;-59
2022/04/08 12:31:35;;;;;;;;;;;18.40;99.90;;;;;;5072248;28;20015;-59
2022/04/08 12:34:02;;;;;;;;;;;18.00;99.90;;;;;;5071350;28;20011;-59
2022/04/08 12:36:29;;;;;;;;;;;17.40;99.90;;;;;;5071924;28;20330;-59
2022/04/08 12:38:56;;;;;;;;;;;17.10;99.90;;;;;;5081584;28;19931;-59
2022/04/08 12:41:24;;;;;;;;;;;17.40;99.90;;;;;;5091705;28;20398;-59
2022/04/08 12:43:54;;;;;;;;;;;17.50;99.90;;;;;;5091921;28;20538;-59
2022/04/08 12:46:22;;;;;;;;;;;17.60;99.90;;;;;;5091829;28;19930;-59
2022/04/08 12:48:49;;;;;;;;;;;17.40;99.90;;;;;;5092198;28;20024;-59
2022/04/08 12:51:17;;;;;;;;;;;17.50;99.90;;;;;;5090979;28;20394;-59
2022/04/08 12:53:44;;;;;;;;;;;17.60;99.90;;;;;;5071977;28;19924;-59
2022/04/08 12:56:11;;;;;;;;;;;17.80;99.90;;;;;;5071735;28;19978;-59
2022/04/08 12:58:38;;;;;;;;;;;17.50;99.90;;;;;;5071764;28;20531;-60
2022/04/08 13:01:04;;;;;;;;;;;17.70;99.90;;;;;;5071411;28;19932;-59
2022/04/08 13:03:33;;;;;;;;;;;17.70;99.90;;;;;;5071027;28;19924;-59
2022/04/08 13:06:00;;;;;;;;;;;17.80;99.90;;;;;;5082444;28;20463;-59
2022/04/08 13:08:26;;;;;;;;;;;17.70;99.90;;;;;;5091754;28;19924;-59
2022/04/08 13:10:53;;;;;;;;;;;17.70;99.90;;;;;;5091328;28;19924;-60
2022/04/08 13:13:21;;;;;;;;;;;17.60;99.90;;;;;;5091281;28;19928;-60
2022/04/08 13:15:49;;;;;;;;;;;18.00;99.90;;;;;;5091818;28;19975;-60
2022/04/08 13:18:15;;;;;;;;;;;18.20;99.90;;;;;;5091238;28;19974;-59
2022/04/08 13:20:45;;;;;;;;;;;18.50;99.90;;;;;;5091504;28;20513;-59
2022/04/08 13:23:12;;;;;;;;;;;18.70;99.90;;;;;;5091104;28;20027;-59
2022/04/08 13:25:39;;;;;;;;;;;18.50;99.90;;;;;;5091414;28;20290;-59
2022/04/08 13:28:05;;;;;;;;;;;18.50;99.90;;;;;;5091498;28;19924;-60
2022/04/08 13:30:32;;;;;;;;;;;18.70;99.90;;;;;;5091576;28;19931;-60
2022/04/08 13:32:59;;;;;;;;;;;18.90;99.90;;;;;;5081220;28;19977;-60
2022/04/08 13:35:26;;;;;;;;;;;18.90;99.90;;;;;;5070799;28;19924;-59
2022/04/08 13:37:56;;;;;;;;;;;18.70;99.90;;;;;;5070804;28;19931;-59
2022/04/08 13:40:23;;;;;;;;;;;19.00;99.90;;;;;;5071066;28;20314;-60
2022/04/08 13:42:50;;;;;;;;;;;19.20;99.90;;;;;;5075165;28;19969;-57
2022/04/08 13:45:17;;;;;;;;;;;19.20;99.90;;;;;;5091118;28;19924;-59
2022/04/08 13:47:44;;;;;;;;;;;18.80;99.90;;;;;;5091453;28;20393;-59
2022/04/08 13:50:11;;;;;;;;;;;18.40;99.90;;;;;;5091524;28;19930;-58
2022/04/08 13:52:38;;;;;;;;;;;18.30;99.90;;;;;;5090661;28;19928;-59
2022/04/08 13:55:06;;;;;;;;;;;18.40;99.90;;;;;;5091240;28;19924;-59
2022/04/08 13:57:33;;;;;;;;;;;18.50;99.90;;;;;;5073672;28;20437;-60
2022/04/08 14:00:00;;;;;;;;;;;18.60;99.90;;;;;;5070786;28;20347;-59
2022/04/08 14:02:27;;;;;;;;;;;18.40;99.90;;;;;;5070424;28;19924;-59
2022/04/08 14:04:53;;;;;;;;;;;18.30;99.90;;;;;;5070505;28;20416;-60
2022/04/08 14:07:20;;;;;;;;;;;18.30;99.90;;;;;;5070536;28;20390;-59
2022/04/08 14:09:49;;;;;;;;;;;18.30;99.90;;;;;;5075868;28;19925;-58
2022/04/08 14:12:18;;;;;;;;;;;18.00;99.90;;;;;;5090113;28;19924;-59
2022/04/08 14:14:45;;;;;;;;;;;17.80;99.90;;;;;;5090903;28;20042;-59
2022/04/08 14:17:12;;;;;;;;;;;17.70;99.90;;;;;;5090322;28;20380;-58
2022/04/08 14:19:39;;;;;;;;;;;17.70;99.90;;;;;;5090562;28;19935;-57
2022/04/08 14:22:06;;;;;;;;;;;17.40;99.90;;;;;;5090388;28;19925;-57